Time;durP1;ratioP1;P1;durP2;ratioP2;P2;SDS_P1;SDS_P2;PMS_P1;PMS_P2;Temp;Humidity;BMP_temperature;BMP_pressure;BME280_temperature;BME280_humidity;BME280_pressure;Samples;Min_cycle;Max_cycle;Signal;HPM_P1;HPM_P2
2021/06/13 00:01:37;;;;;;;;;4.00;4.00;;;;;20.26;49.51;102231.19;6274662;22;45527;-89
2021/06/13 00:04:03;;;;;;;;;4.25;4.25;;;;;20.26;49.85;102236.47;6247053;22;45291;-91
2021/06/13 00:06:29;;;;;;;;;5.33;4.67;;;;;20.28;49.42;102233.75;6273160;22;45207;-90
2021/06/13 00:08:54;;;;;;;;;5.00;4.00;;;;;20.21;49.69;102233.22;6275772;22;45332;-90
2021/06/13 00:11:21;;;;;;;;;4.00;4.00;;;;;20.21;50.20;102235.88;6272894;22;46511;-91
2021/06/13 00:13:48;;;;;;;;;3.67;3.67;;;;;20.17;49.92;102234.31;6274768;22;45376;-89
2021/06/13 00:16:14;;;;;;;;;4.00;4.00;;;;;20.11;50.21;102232.88;6273153;22;45308;-90
2021/06/13 00:18:40;;;;;;;;;4.33;4.00;;;;;20.09;50.48;102232.06;6275701;22;45343;-91
2021/06/13 00:21:05;;;;;;;;;6.00;4.00;;;;;20.07;50.01;102239.25;6272617;22;47508;-90
2021/06/13 00:23:31;;;;;;;;;4.00;4.00;;;;;20.01;50.51;102234.28;6272620;22;45425;-90
2021/06/13 00:25:58;;;;;;;;;6.67;5.00;;;;;20.00;50.59;102232.56;6247360;22;45522;-90
2021/06/13 00:28:23;;;;;;;;;5.00;5.00;;;;;19.98;50.85;102230.00;6246907;22;45208;-90
2021/06/13 00:30:49;;;;;;;;;5.00;5.00;;;;;19.95;50.50;102234.56;6247028;22;47481;-90
2021/06/13 00:33:14;;;;;;;;;5.00;5.00;;;;;19.92;50.95;102226.78;6272364;22;45662;-91
2021/06/13 00:35:39;;;;;;;;;7.00;5.00;;;;;19.87;50.96;102214.66;6275208;22;45296;-90
2021/06/13 00:38:06;;;;;;;;;4.67;4.67;;;;;19.84;50.89;102220.13;6247545;22;45294;-91
2021/06/13 00:40:33;;;;;;;;;4.00;4.00;;;;;19.85;50.70;102224.47;6274446;22;45759;-91
2021/06/13 00:42:59;;;;;;;;;4.75;4.50;;;;;19.80;51.00;102215.09;6274448;22;45219;-90
2021/06/13 00:45:25;;;;;;;;;4.00;4.00;;;;;19.75;51.48;102223.25;6271795;22;45401;-90
2021/06/13 00:47:51;;;;;;;;;5.75;5.75;;;;;19.76;51.27;102233.72;6247241;22;45409;-90
2021/06/13 00:50:34;;;;;;;;;6.50;6.00;;;;;19.74;51.36;102227.69;6246409;22;46973;-90
2021/06/13 00:53:03;;;;;;;;;4.00;4.00;;;;;19.71;51.57;102229.59;6246866;22;45371;-90
2021/06/13 00:55:28;;;;;;;;;6.67;6.00;;;;;19.63;51.24;102227.38;6272361;22;45322;-90
2021/06/13 00:57:54;;;;;;;;;4.50;3.50;;;;;19.63;51.40;102220.28;6246994;22;45247;-90
2021/06/13 01:00:20;;;;;;;;;5.00;5.00;;;;;19.60;51.53;102225.75;6272252;22;46971;-89
2021/06/13 01:02:46;;;;;;;;;7.50;6.75;;;;;19.58;51.76;102221.47;6272358;22;45642;-90
2021/06/13 01:05:11;;;;;;;;;6.67;5.33;;;;;19.52;51.45;102217.34;6246522;22;45220;-90
2021/06/13 01:08:11;;;;;;;;;5.67;5.00;;;;;19.55;51.82;102229.53;6274048;22;45520;-91
2021/06/13 01:11:07;;;;;;;;;6.33;6.00;;;;;19.52;51.68;102224.44;6273845;22;47224;-91
2021/06/13 01:13:59;;;;;;;;;4.67;4.67;;;;;19.48;52.00;102221.94;6276043;22;45364;-90
2021/06/13 01:16:46;;;;;;;;;4.67;4.67;;;;;19.43;51.96;102225.72;6275732;22;45345;-90
2021/06/13 01:19:11;;;;;;;;;4.67;4.67;;;;;19.40;52.05;102223.25;6276233;22;45246;-90
2021/06/13 01:21:53;;;;;;;;;6.00;5.00;;;;;19.39;51.99;102226.81;6275978;22;45057;-91
2021/06/13 01:24:46;;;;;;;;;5.67;4.33;;;;;19.39;52.05;102218.91;6276021;22;45345;-90
2021/06/13 01:27:42;;;;;;;;;5.75;5.25;;;;;19.38;52.63;102225.13;6247231;22;45390;-90
2021/06/13 01:30:08;;;;;;;;;4.33;4.33;;;;;19.35;52.02;102229.59;6274158;22;45398;-90
2021/06/13 01:32:36;;;;;;;;;7.00;5.00;;;;;19.34;52.46;102233.19;6247795;22;46919;-90
2021/06/13 01:35:06;;;;;;;;;5.00;5.00;;;;;19.32;52.22;102232.41;6247808;22;45303;-90
2021/06/13 01:37:37;;;;;;;;;5.50;5.25;;;;;19.30;53.04;102234.25;6275661;22;45323;-90
2021/06/13 01:40:10;;;;;;;;;5.67;4.00;;;;;19.28;52.53;102236.13;6276297;22;45283;-90
2021/06/13 01:42:38;;;;;;;;;5.00;5.00;;;;;19.24;52.67;102234.56;6272148;22;48291;-90
2021/06/13 01:45:08;;;;;;;;;7.25;7.25;;;;;19.21;53.16;102245.28;6273697;22;45268;-91
2021/06/13 01:47:37;;;;;;;;;4.50;4.50;;;;;19.20;53.24;102249.69;6247591;22;45382;-90
2021/06/13 01:50:05;;;;;;;;;7.75;5.75;;;;;19.18;53.04;102248.06;6248355;22;45265;-91
2021/06/13 01:52:34;;;;;;;;;7.67;5.00;;;;;19.15;52.49;102248.19;6247766;22;48401;-91
2021/06/13 01:55:00;;;;;;;;;8.00;7.25;;;;;19.07;52.42;102241.50;6275241;22;45414;-91
2021/06/13 01:57:28;;;;;;;;;5.00;5.00;;;;;19.08;53.06;102237.94;6248242;22;45354;-91
2021/06/13 01:59:59;;;;;;;;;5.33;5.33;;;;;19.02;53.30;102238.22;6273613;22;45429;-90
2021/06/13 02:02:26;;;;;;;;;5.33;5.33;;;;;19.02;52.78;102240.84;6275208;22;46264;-91
2021/06/13 02:04:52;;;;;;;;;6.67;5.33;;;;;19.00;53.22;102249.75;6275622;22;45242;-90
2021/06/13 02:07:19;;;;;;;;;4.67;4.67;;;;;18.95;53.09;102235.03;6275277;22;45277;-89
2021/06/13 02:09:47;;;;;;;;;7.67;6.67;;;;;18.93;53.17;102250.06;6248378;22;45240;-90
2021/06/13 02:12:13;;;;;;;;;6.33;5.33;;;;;18.91;53.68;102256.34;6247814;22;46732;-91
2021/06/13 02:14:42;;;;;;;;;7.33;5.00;;;;;18.87;53.64;102247.72;6274050;22;45382;-91
2021/06/13 02:17:09;;;;;;;;;9.00;5.67;;;;;18.86;53.80;102253.06;6273655;22;45278;-91
2021/06/13 02:19:37;;;;;;;;;7.00;5.33;;;;;18.83;53.51;102262.84;6275765;22;45557;-90
2021/06/13 02:22:03;;;;;;;;;7.00;6.00;;;;;18.78;53.75;102259.56;6273828;22;47121;-90
2021/06/13 02:24:31;;;;;;;;;7.75;5.00;;;;;18.75;53.91;102275.50;6273552;22;45905;-91
2021/06/13 02:26:58;;;;;;;;;5.00;5.00;;;;;18.70;54.03;102259.03;6275646;22;45434;-91
2021/06/13 02:29:25;;;;;;;;;6.67;6.67;;;;;18.67;53.68;102257.44;6248303;22;45395;-90
2021/06/13 02:31:53;;;;;;;;;5.33;5.33;;;;;18.63;54.38;102258.50;6273277;22;47358;-90
2021/06/13 02:34:24;;;;;;;;;6.50;6.00;;;;;18.60;54.29;102269.16;6275467;22;45364;-90
2021/06/13 02:36:51;;;;;;;;;6.00;6.00;;;;;18.57;54.42;102261.41;6248004;22;45251;-90
2021/06/13 02:39:18;;;;;;;;;8.25;7.00;;;;;18.55;54.09;102265.88;6275962;22;45349;-90
2021/06/13 02:41:44;;;;;;;;;8.75;7.00;;;;;18.56;53.92;102267.59;6272896;22;47290;-90
2021/06/13 02:44:11;;;;;;;;;6.00;6.00;;;;;18.55;54.57;102272.03;6273453;22;45361;-90
2021/06/13 02:46:37;;;;;;;;;4.25;4.25;;;;;18.54;54.67;102265.03;6273811;22;45470;-91
2021/06/13 02:49:07;;;;;;;;;5.67;5.67;;;;;18.50;54.53;102267.88;6248330;22;45549;-90
2021/06/13 02:51:36;;;;;;;;;8.00;6.25;;;;;18.49;54.26;102272.31;6272909;22;46629;-90
2021/06/13 02:54:05;;;;;;;;;5.75;5.75;;;;;18.42;54.52;102268.22;6275947;22;45387;-90
2021/06/13 02:56:39;;;;;;;;;8.33;6.00;;;;;18.41;54.68;102277.91;6247762;22;45384;-90
2021/06/13 02:59:10;;;;;;;;;8.25;6.25;;;;;18.39;54.75;102271.88;6273603;22;45228;-91
2021/06/13 03:01:40;;;;;;;;;5.00;5.00;;;;;18.40;54.41;102292.03;6273269;22;47244;-90
2021/06/13 03:04:08;;;;;;;;;4.00;4.00;;;;;18.38;54.40;102295.66;6246581;22;45256;-90
2021/06/13 03:06:34;;;;;;;;;7.75;7.50;;;;;18.35;54.68;102291.38;6275259;22;45381;-91
2021/06/13 03:09:00;;;;;;;;;7.33;5.00;;;;;18.34;54.23;102291.44;6247988;22;45647;-90
2021/06/13 03:11:26;;;;;;;;;2.67;2.67;;;;;18.34;54.51;102294.06;6273510;22;47137;-90
2021/06/13 03:13:53;;;;;;;;;8.75;7.00;;;;;18.28;54.36;102288.16;6272904;22;45401;-91
2021/06/13 03:16:20;;;;;;;;;9.00;9.00;;;;;18.29;54.41;102304.81;6275852;22;45302;-90
2021/06/13 03:18:48;;;;;;;;;7.33;7.00;;;;;18.27;54.83;102304.88;6273319;22;45251;-90
2021/06/13 03:21:14;;;;;;;;;6.00;6.00;;;;;18.22;54.52;102303.34;6275376;22;45464;-90
2021/06/13 03:23:41;;;;;;;;;6.00;6.00;;;;;18.20;54.64;102299.94;6275087;22;45463;-89
2021/06/13 03:26:08;;;;;;;;;7.00;7.00;;;;;18.14;54.78;102298.41;6275473;22;45282;-90
2021/06/13 03:28:35;;;;;;;;;5.25;4.25;;;;;18.12;55.13;102309.03;6247025;22;45365;-90
2021/06/13 03:31:03;;;;;;;;;6.00;5.75;;;;;18.10;54.56;102304.75;6273457;22;47457;-90
2021/06/13 03:33:30;;;;;;;;;5.50;4.50;;;;;18.09;54.79;102311.78;6274846;22;45319;-91
2021/06/13 03:35:57;;;;;;;;;7.00;7.00;;;;;18.07;55.22;102307.50;6275300;22;45222;-90
2021/06/13 03:38:24;;;;;;;;;7.25;7.25;;;;;18.05;55.32;102309.34;6247365;22;45236;-90
2021/06/13 03:40:51;;;;;;;;;7.00;6.00;;;;;17.99;55.22;102308.69;6273176;22;47236;-90
2021/06/13 03:43:18;;;;;;;;;5.33;5.33;;;;;17.95;55.07;102308.88;6246346;22;45306;-89
2021/06/13 03:45:45;;;;;;;;;6.00;4.00;;;;;17.90;55.55;102304.66;6246404;22;44809;-90
2021/06/13 03:48:13;;;;;;;;;6.75;6.75;;;;;17.90;55.11;102309.06;6247829;22;45285;-90
2021/06/13 03:50:42;;;;;;;;;8.75;7.00;;;;;17.87;55.25;102309.19;6246972;22;46740;-90
2021/06/13 03:53:08;;;;;;;;;8.25;8.25;;;;;17.86;55.43;102310.97;6273156;22;45429;-90
2021/06/13 03:55:33;;;;;;;;;6.00;6.00;;;;;17.84;55.44;102309.31;6246639;22;45457;-90
2021/06/13 03:58:00;;;;;;;;;7.50;7.25;;;;;17.85;55.51;102311.88;6275387;22;45258;-90
2021/06/13 04:00:30;;;;;;;;;9.00;7.00;;;;;17.84;55.41;102312.81;6247371;22;47659;-90
2021/06/13 04:02:57;;;;;;;;;7.50;6.75;;;;;17.81;55.48;102312.09;6273225;22;45196;-90
2021/06/13 04:05:23;;;;;;;;;7.25;7.00;;;;;17.82;55.36;102316.44;6274896;22;45440;-90
2021/06/13 04:07:49;;;;;;;;;7.75;7.50;;;;;17.79;55.35;102320.06;6275184;22;45482;-89
2021/06/13 04:10:17;;;;;;;;;6.50;6.50;;;;;17.81;55.38;102320.00;6247548;22;47039;-90
2021/06/13 04:12:46;;;;;;;;;7.25;6.75;;;;;17.79;55.15;102320.06;6272797;22;45250;-90
2021/06/13 04:15:11;;;;;;;;;7.50;7.00;;;;;17.79;55.64;102329.72;6275314;22;45393;-89
2021/06/13 04:17:39;;;;;;;;;9.25;8.00;;;;;17.80;55.60;102327.03;6275134;22;45259;-90
2021/06/13 04:20:06;;;;;;;;;7.75;6.00;;;;;17.76;55.50;102325.44;6273130;22;47307;-90
2021/06/13 04:22:32;;;;;;;;;7.50;7.00;;;;;17.80;55.07;102342.81;6272683;22;45231;-90
2021/06/13 04:24:59;;;;;;;;;9.25;7.50;;;;;17.77;55.03;102329.78;6275184;22;45262;-89
2021/06/13 04:27:26;;;;;;;;;7.75;7.75;;;;;17.79;55.13;102342.88;6274904;22;45204;-90
2021/06/13 04:29:52;;;;;;;;;9.75;8.00;;;;;17.76;55.10;102341.22;6247143;22;47227;-89
2021/06/13 04:32:18;;;;;;;;;7.00;6.75;;;;;17.78;55.09;102344.66;6272413;22;45515;-89
2021/06/13 04:34:43;;;;;;;;;8.25;6.25;;;;;17.82;55.49;102351.50;6275331;22;45381;-90
2021/06/13 04:37:10;;;;;;;;;11.00;10.50;;;;;17.83;54.79;102349.75;6273306;22;45412;-90
2021/06/13 04:39:36;;;;;;;;;8.75;8.00;;;;;17.83;55.36;102355.00;6271407;22;48162;-89
2021/06/13 04:42:04;;;;;;;;;7.25;6.75;;;;;17.86;55.20;102353.09;6274102;22;45479;-89
2021/06/13 04:44:30;;;;;;;;;6.75;6.75;;;;;17.85;54.96;102350.53;6247994;22;45226;-89
2021/06/13 04:46:55;;;;;;;;;10.00;7.25;;;;;17.87;54.94;102348.69;6274813;22;45381;-89
2021/06/13 04:49:21;;;;;;;;;8.25;7.75;;;;;17.90;54.72;102353.81;6273234;22;46783;-89
2021/06/13 04:51:53;;;;;;;;;7.25;6.25;;;;;17.89;54.92;102355.63;6248513;22;45302;-89
2021/06/13 04:54:21;;;;;;;;;9.50;7.75;;;;;17.93;54.64;102358.97;6274506;22;45258;-89
2021/06/13 04:57:09;;;;;;;;;6.25;6.25;;;;;17.94;55.22;102359.81;6274536;22;45530;-89
2021/06/13 04:59:34;;;;;;;;;8.00;7.25;;;;;17.94;54.97;102365.09;6273710;22;46836;-89
2021/06/13 05:02:00;;;;;;;;;6.25;6.25;;;;;17.93;54.65;102369.50;6274150;22;45372;-90
2021/06/13 05:04:26;;;;;;;;;7.75;7.75;;;;;17.97;54.59;102360.53;6248752;22;45410;-90
2021/06/13 05:06:52;;;;;;;;;7.50;7.00;;;;;17.95;54.44;102364.19;6259796;22;45604;-88
2021/06/13 05:09:19;;;;;;;;;10.33;8.33;;;;;18.00;54.55;102363.06;6214969;22;46266;-90
2021/06/13 05:11:45;;;;;;;;;6.25;6.25;;;;;18.01;54.53;102363.94;6212816;22;45295;-90
2021/06/13 05:14:10;;;;;;;;;9.25;7.50;;;;;18.01;54.67;102364.75;6239118;22;45227;-90
2021/06/13 05:16:38;;;;;;;;;7.50;7.50;;;;;18.07;54.39;102371.59;6241752;22;45429;-89
2021/06/13 05:19:03;;;;;;;;;8.50;7.75;;;;;18.09;54.62;102364.47;6213273;22;46733;-90
2021/06/13 05:21:29;;;;;;;;;7.50;6.25;;;;;18.11;54.32;102370.56;6212080;22;45721;-89
2021/06/13 05:23:54;;;;;;;;;8.00;6.50;;;;;18.11;54.22;102369.69;6212865;22;45310;-89
2021/06/13 05:26:20;;;;;;;;;11.50;9.00;;;;;18.14;53.88;102383.59;6214236;22;45305;-89
2021/06/13 05:28:45;;;;;;;;;7.25;7.00;;;;;18.16;54.11;102379.09;6237658;22;47856;-89
2021/06/13 05:31:11;;;;;;;;;7.00;7.00;;;;;18.18;53.95;102381.69;6237647;22;45264;-89
2021/06/13 05:33:36;;;;;;;;;7.50;6.75;;;;;18.24;54.24;102384.03;6214572;22;45273;-88
2021/06/13 05:36:02;;;;;;;;;7.00;7.00;;;;;18.29;54.14;102383.88;6238707;22;45400;-89
2021/06/13 05:38:28;;;;;;;;;8.00;7.00;;;;;18.30;53.95;102381.16;6238126;22;46802;-89
2021/06/13 05:40:55;;;;;;;;;8.67;6.67;;;;;18.35;53.89;102388.88;6238000;22;45370;-89
2021/06/13 05:43:20;;;;;;;;;7.00;7.00;;;;;18.36;54.04;102394.97;6213737;22;45404;-89
2021/06/13 05:45:46;;;;;;;;;9.75;6.50;;;;;18.39;53.86;102385.19;6212409;22;45536;-90
2021/06/13 05:48:12;;;;;;;;;8.25;6.00;;;;;18.45;54.12;102397.22;6237805;22;48200;-89
2021/06/13 05:50:38;;;;;;;;;7.00;7.00;;;;;18.45;53.56;102391.97;6237962;22;45310;-90
2021/06/13 05:53:06;;;;;;;;;9.00;7.00;;;;;18.51;53.87;102394.34;6237248;22;45398;-91
2021/06/13 05:55:32;;;;;;;;;8.25;7.00;;;;;18.54;53.99;102395.97;6238237;22;45571;-89
2021/06/13 05:57:57;;;;;;;;;7.00;7.00;;;;;18.61;53.82;102397.41;6214195;22;46506;-89
2021/06/13 06:00:28;;;;;;;;;8.67;6.67;;;;;18.65;53.90;102404.28;6212267;22;45284;-89
2021/06/13 06:02:54;;;;;;;;;5.33;5.33;;;;;18.70;53.46;102402.28;6237513;22;45471;-89
2021/06/13 06:05:21;;;;;;;;;7.75;7.25;;;;;18.75;53.53;102404.72;6238214;22;44847;-90
2021/06/13 06:07:48;;;;;;;;;7.33;6.33;;;;;18.79;53.01;102402.81;6211394;22;47340;-89
2021/06/13 06:10:15;;;;;;;;;8.00;6.00;;;;;18.84;52.84;102411.34;6237772;22;45419;-89
2021/06/13 06:12:43;;;;;;;;;9.25;7.50;;;;;18.91;51.97;102411.94;6214267;22;45465;-89
2021/06/13 06:15:10;;;;;;;;;7.75;7.00;;;;;18.91;51.92;102411.94;6237697;22;45429;-89
2021/06/13 06:17:36;;;;;;;;;7.67;6.33;;;;;18.96;52.08;102407.31;6237455;22;47697;-89
2021/06/13 06:20:02;;;;;;;;;7.00;7.00;;;;;19.00;51.93;102416.81;6237779;22;45252;-89
2021/06/13 06:22:27;;;;;;;;;8.00;7.00;;;;;19.07;52.16;102417.44;6214924;22;45295;-90
2021/06/13 06:24:53;;;;;;;;;7.00;6.67;;;;;19.11;51.72;102412.88;6237881;22;44814;-89
2021/06/13 06:27:19;;;;;;;;;7.00;5.25;;;;;19.16;51.22;102414.34;6237837;22;47151;-90
2021/06/13 06:29:44;;;;;;;;;8.00;6.00;;;;;19.23;51.22;102421.09;6214489;22;45374;-89
2021/06/13 06:32:09;;;;;;;;;6.00;6.00;;;;;19.28;51.21;102420.00;6214934;22;45557;-89
2021/06/13 06:34:35;;;;;;;;;5.00;5.00;;;;;19.35;51.01;102424.09;6237466;22;45431;-90
2021/06/13 06:37:01;;;;;;;;;5.67;5.00;;;;;19.43;51.02;102423.69;6211927;22;47376;-90
2021/06/13 06:39:26;;;;;;;;;6.00;6.00;;;;;19.48;51.02;102425.22;6213744;22;45325;-89
2021/06/13 06:41:52;;;;;;;;;5.67;5.67;;;;;19.55;50.39;102422.28;6237991;22;45375;-90
2021/06/13 06:44:17;;;;;;;;;7.00;5.00;;;;;19.61;50.33;102430.78;6237642;22;45609;-89
2021/06/13 06:46:43;;;;;;;;;6.33;6.33;;;;;19.69;49.94;102432.19;6213921;22;46092;-91
2021/06/13 06:49:09;;;;;;;;;7.67;7.67;;;;;19.75;49.84;102438.03;6213982;22;45445;-89
2021/06/13 06:51:35;;;;;;;;;5.67;5.00;;;;;19.79;49.68;102422.03;6214400;22;45345;-88
2021/06/13 06:54:01;;;;;;;;;5.00;5.00;;;;;19.88;49.49;102430.38;6213888;22;45393;-89
2021/06/13 06:56:28;;;;;;;;;5.50;4.75;;;;;19.93;48.75;102430.13;6238173;22;47393;-90
2021/06/13 06:58:54;;;;;;;;;4.67;4.67;;;;;19.97;49.01;102428.22;6214099;22;45228;-89
2021/06/13 07:01:20;;;;;;;;;6.67;6.67;;;;;20.08;48.80;102425.06;6211852;22;44767;-89
2021/06/13 07:03:46;;;;;;;;;6.75;5.00;;;;;20.10;48.42;102417.91;6238001;22;45366;-91
2021/06/13 07:06:12;;;;;;;;;5.67;5.33;;;;;20.23;47.63;102434.00;6215545;22;45425;-90
2021/06/13 07:08:37;;;;;;;;;8.33;5.00;;;;;20.25;46.52;102427.72;6273849;22;45334;-90
2021/06/13 07:11:03;;;;;;;;;6.00;4.25;;;;;20.28;47.12;102422.25;6247749;22;45342;-89
2021/06/13 07:13:28;;;;;;;;;8.00;6.00;;;;;20.37;46.18;102430.66;6274046;22;45392;-89
2021/06/13 07:15:54;;;;;;;;;4.00;4.00;;;;;20.40;46.76;102423.44;6273516;22;46979;-90
2021/06/13 07:18:19;;;;;;;;;4.33;3.67;;;;;20.50;46.90;102431.75;6247291;22;45356;-90
2021/06/13 07:20:44;;;;;;;;;4.33;4.33;;;;;20.54;45.98;102435.94;6247641;22;45302;-90
2021/06/13 07:23:10;;;;;;;;;5.25;5.00;;;;;20.60;46.36;102429.47;6273188;22;45476;-90
2021/06/13 07:25:36;;;;;;;;;5.00;5.00;;;;;20.67;45.91;102441.47;6273153;22;47995;-91
2021/06/13 07:28:04;;;;;;;;;8.00;5.33;;;;;20.69;45.45;102431.66;6247190;22;46142;-90
2021/06/13 07:30:29;;;;;;;;;5.00;5.00;;;;;20.77;46.27;102444.47;6275231;22;45284;-91
2021/06/13 07:32:56;;;;;;;;;6.00;6.00;;;;;20.85;45.75;102443.19;6247968;22;45310;-89
2021/06/13 07:35:21;;;;;;;;;7.67;6.00;;;;;20.93;45.29;102449.81;6273381;22;47566;-90
2021/06/13 07:37:47;;;;;;;;;8.00;5.67;;;;;20.99;45.10;102445.16;6272735;22;45371;-91
2021/06/13 07:40:15;;;;;;;;;5.67;5.00;;;;;21.08;45.58;102452.59;6247781;22;45391;-90
2021/06/13 07:42:41;;;;;;;;;4.67;4.67;;;;;21.13;45.03;102439.97;6273866;22;45264;-92
2021/06/13 07:45:10;;;;;;;;;5.33;4.00;;;;;21.19;44.45;102442.28;6272652;22;47428;-91
2021/06/13 07:47:36;;;;;;;;;4.67;4.67;;;;;21.27;43.83;102438.34;6275625;22;45160;-91
2021/06/13 07:50:04;;;;;;;;;3.00;3.00;;;;;21.35;43.96;102438.81;6273451;22;45302;-89
2021/06/13 07:52:31;;;;;;;;;5.00;5.00;;;;;21.43;44.46;102439.22;6275706;22;45416;-90
2021/06/13 07:54:56;;;;;;;;;6.33;4.67;;;;;21.51;43.97;102433.50;6275134;22;45370;-90
2021/06/13 07:57:22;;;;;;;;;4.00;4.00;;;;;21.56;43.89;102426.16;6247701;22;45266;-88
2021/06/13 07:59:47;;;;;;;;;6.67;4.67;;;;;21.66;43.53;102430.94;6275226;22;45144;-91
2021/06/13 08:02:13;;;;;;;;;5.00;5.00;;;;;21.75;43.64;102428.66;6273566;22;45293;-91
2021/06/13 08:04:43;;;;;;;;;5.00;4.67;;;;;21.84;43.38;102437.88;6274887;22;45485;-90
2021/06/13 08:07:08;;;;;;;;;6.00;5.67;;;;;21.92;43.61;102429.47;6246957;22;45397;-90
2021/06/13 08:09:34;;;;;;;;;7.50;5.00;;;;;22.02;42.53;102435.97;6275157;22;45751;-90
2021/06/13 08:11:59;;;;;;;;;4.33;3.67;;;;;22.10;42.61;102429.34;6247818;22;45385;-89
2021/06/13 08:14:25;;;;;;;;;6.00;4.33;;;;;22.15;42.46;102429.94;6273061;22;47295;-90
2021/06/13 08:16:50;;;;;;;;;6.00;4.67;;;;;22.25;42.86;102430.25;6272804;22;45842;-91
2021/06/13 08:19:16;;;;;;;;;3.67;3.67;;;;;22.31;42.14;102429.88;6273280;22;45183;-90
2021/06/13 08:21:41;;;;;;;;;7.00;4.00;;;;;22.40;42.84;102426.69;6273711;22;45439;-91
2021/06/13 08:24:08;;;;;;;;;5.00;4.00;;;;;22.50;41.00;102428.78;6247465;22;46973;-90
2021/06/13 08:26:37;;;;;;;;;3.33;3.33;;;;;22.52;41.87;102429.53;6274548;22;45266;-91
2021/06/13 08:29:03;;;;;;;;;4.00;3.33;;;;;22.61;41.36;102433.47;6273256;22;45333;-90
2021/06/13 08:31:30;;;;;;;;;4.00;4.00;;;;;22.71;41.15;102434.59;6270647;22;45285;-91
2021/06/13 08:33:56;;;;;;;;;5.67;2.67;;;;;22.78;40.36;102435.09;6274712;22;46127;-90
2021/06/13 08:36:22;;;;;;;;;4.00;4.00;;;;;22.82;40.25;102424.19;6271899;22;45287;-91
2021/06/13 08:38:49;;;;;;;;;3.00;3.00;;;;;22.93;41.12;102430.63;6272645;22;45534;-90
2021/06/13 08:41:16;;;;;;;;;3.67;3.00;;;;;23.00;40.28;102426.63;6247536;22;45243;-91
2021/06/13 08:43:41;;;;;;;;;3.33;3.33;;;;;23.09;40.57;102427.88;6246710;22;48332;-89
2021/06/13 08:46:08;;;;;;;;;4.67;3.00;;;;;23.17;39.96;102422.94;6246387;22;45711;-89
2021/06/13 08:48:33;;;;;;;;;5.00;3.00;;;;;23.24;40.04;102423.41;6273107;22;45444;-90
2021/06/13 08:51:00;;;;;;;;;4.00;3.67;;;;;23.32;39.81;102426.44;6274290;22;45357;-90
2021/06/13 08:53:28;;;;;;;;;4.00;3.00;;;;;23.38;38.64;102411.94;6275077;22;46628;-91
2021/06/13 08:55:54;;;;;;;;;5.00;3.00;;;;;23.45;39.13;102413.22;6274892;22;45215;-90
2021/06/13 08:58:19;;;;;;;;;2.33;2.33;;;;;23.55;39.28;102415.31;6273396;22;45160;-92
2021/06/13 09:00:47;;;;;;;;;3.00;3.00;;;;;23.64;38.90;102421.81;6272475;22;45326;-90
2021/06/13 09:03:13;;;;;;;;;2.33;2.33;;;;;23.70;39.25;102411.63;6272404;22;47447;-91
2021/06/13 09:05:39;;;;;;;;;3.00;2.33;;;;;23.81;39.25;102416.25;6271680;22;45325;-90
2021/06/13 09:08:11;;;;;;;;;2.67;2.67;;;;;23.91;38.88;102419.13;6242875;22;45401;-91
2021/06/13 09:10:40;;;;;;;;;3.00;2.00;;;;;23.97;38.60;102413.41;6237216;22;45306;-91
2021/06/13 09:13:14;;;;;;;;;3.00;3.00;;;;;24.06;38.23;102411.09;6210845;22;47069;-91
2021/06/13 09:15:47;;;;;;;;;3.00;3.00;;;;;24.15;38.90;102400.72;6236320;22;45480;-91
2021/06/13 09:18:38;;;;;;;;;3.33;3.00;;;;;24.28;38.38;102408.72;6236556;22;45309;-92
2021/06/13 09:21:11;;;;;;;;;3.67;3.67;;;;;24.39;37.78;102399.97;6213195;22;45353;-90
2021/06/13 09:23:38;;;;;;;;;3.00;3.00;;;;;24.49;37.95;102402.00;6235207;22;48115;-90
2021/06/13 09:26:10;;;;;;;;;4.67;3.67;;;;;24.62;38.35;102392.19;6210802;22;45294;-89
2021/06/13 09:28:41;;;;;;;;;4.00;3.33;;;;;24.74;38.00;102394.94;6213846;22;45372;-88
2021/06/13 09:31:15;;;;;;;;;2.00;2.00;;;;;24.87;37.91;102400.28;6214251;22;45356;-91
2021/06/13 09:33:42;;;;;;;;;5.00;4.67;;;;;25.00;37.53;102401.13;6237455;22;47966;-90
2021/06/13 09:36:09;;;;;;;;;2.33;2.33;;;;;25.10;36.45;102398.66;6214179;22;45227;-90
2021/06/13 09:38:43;;;;;;;;;4.33;2.67;;;;;25.18;36.40;102390.94;6238209;22;45310;-91
2021/06/13 09:41:22;;;;;;;;;3.67;2.33;;;;;25.31;37.86;102400.69;6212734;22;45492;-91
2021/06/13 09:44:00;;;;;;;;;3.67;3.00;;;;;25.38;37.21;102409.09;6237737;22;47234;-90
2021/06/13 09:46:30;;;;;;;;;2.33;2.33;;;;;25.46;37.21;102394.25;6214298;22;45454;-91
2021/06/13 09:49:09;;;;;;;;;3.33;3.33;;;;;25.57;37.18;102392.63;6237237;22;45414;-91
2021/06/13 09:51:40;;;;;;;;;3.00;3.00;;;;;25.67;36.58;102393.66;6236977;22;45330;-90
2021/06/13 09:54:08;;;;;;;;;1.67;1.67;;;;;25.80;36.27;102396.25;6211782;22;47498;-90
2021/06/13 09:56:38;;;;;;;;;2.33;2.33;;;;;25.91;36.70;102395.41;6214448;22;45180;-91
2021/06/13 09:59:18;;;;;;;;;4.00;4.00;;;;;26.02;36.91;102394.63;6238633;22;45326;-91
2021/06/13 10:01:46;;;;;;;;;3.00;3.00;;;;;26.19;36.62;102395.97;6238141;22;45521;-90
2021/06/13 10:04:14;;;;;;;;;3.00;3.00;;;;;26.35;35.97;102393.03;6237732;22;47423;-91
2021/06/13 10:06:40;;;;;;;;;3.33;3.33;;;;;26.50;36.72;102385.63;6237858;22;45690;-90
2021/06/13 10:09:10;;;;;;;;;4.33;3.33;;;;;26.64;35.93;102389.00;6214018;22;45373;-90
2021/06/13 10:11:37;;;;;;;;;3.00;3.00;;;;;26.77;36.05;102386.22;6212324;22;45580;-91
2021/06/13 10:14:11;;;;;;;;;2.33;2.33;;;;;26.89;34.94;102389.75;6236942;22;47658;-91
2021/06/13 10:16:45;;;;;;;;;2.00;2.00;;;;;27.03;34.48;102388.66;6237464;22;45515;-91
2021/06/13 10:19:18;;;;;;;;;3.67;3.67;;;;;27.16;33.86;102388.50;6211981;22;45496;-91
2021/06/13 10:21:54;;;;;;;;;2.67;2.67;;;;;27.29;34.53;102385.66;6237936;22;45236;-91
2021/06/13 10:24:22;;;;;;;;;1.33;1.00;;;;;27.41;33.98;102379.31;6212048;22;47340;-92
2021/06/13 10:26:50;;;;;;;;;3.00;3.00;;;;;27.56;33.11;102379.00;6237368;22;45408;-91
2021/06/13 10:29:21;;;;;;;;;2.67;2.67;;;;;27.69;33.34;102377.06;6214272;22;45161;-91
2021/06/13 10:31:49;;;;;;;;;3.33;3.00;;;;;27.83;33.16;102381.25;6234917;22;45441;-92
2021/06/13 10:34:16;;;;;;;;;3.00;3.00;;;;;27.95;32.65;102378.50;6234996;22;46707;-91
2021/06/13 10:36:42;;;;;;;;;4.00;3.00;;;;;28.06;32.51;102374.88;6234810;22;45249;-91
2021/06/13 10:39:13;;;;;;;;;5.00;5.00;;;;;28.21;32.42;102378.06;6210140;22;45197;-91
2021/06/13 10:41:39;;;;;;;;;3.67;3.67;;;;;28.36;31.65;102363.38;6236617;22;45498;-91
2021/06/13 10:44:12;;;;;;;;;4.00;4.00;;;;;28.53;32.08;102372.63;6211557;22;47917;-90
2021/06/13 10:46:43;;;;;;;;;3.67;2.67;;;;;28.70;31.54;102372.13;6237142;22;46266;-92
2021/06/13 10:49:31;;;;;;;;;2.00;2.00;;;;;28.86;31.14;102367.09;6237570;22;45413;-91
2021/06/13 10:52:16;;;;;;;;;2.00;1.00;;;;;29.04;31.20;102364.63;6237976;22;45546;-90
2021/06/13 10:54:51;;;;;;;;;3.00;3.00;;;;;29.16;31.13;102354.59;6209263;22;48085;-89
2021/06/13 10:57:19;;;;;;;;;3.00;2.00;;;;;29.31;31.06;102356.88;6234512;22;45264;-92
2021/06/13 11:00:00;;;;;;;;;5.00;4.00;;;;;29.43;30.71;102350.38;6233360;22;45858;-91
2021/06/13 11:02:34;;;;;;;;;6.00;6.00;;;;;29.60;30.75;102353.38;6236327;22;45623;-92
2021/06/13 11:05:08;;;;;;;;;4.33;3.00;;;;;29.69;30.29;102343.63;6234236;22;46847;-90
2021/06/13 11:07:44;;;;;;;;;2.33;2.33;;;;;29.83;29.72;102353.91;6234490;22;45200;-91
2021/06/13 11:10:18;;;;;;;;;3.00;3.00;;;;;29.92;29.21;102351.34;6211023;22;45239;-90
2021/06/13 11:13:01;;;;;;;;;2.67;2.00;;;;;29.97;28.79;102354.44;6208662;22;45670;-91
2021/06/13 11:18:15;;;;;;;;;3.00;3.00;;;;;30.20;24.27;102352.28;6147462;23;45488;-91
2021/06/13 11:21:08;;;;;;;;;5.00;3.00;;;;;30.13;27.71;102352.00;6123486;23;45320;-91
2021/06/13 11:23:36;;;;;;;;;2.00;2.00;;;;;30.14;27.75;102345.66;6123287;23;45500;-92
2021/06/13 11:26:13;;;;;;;;;6.75;6.75;;;;;30.18;27.18;102346.22;6123327;23;47020;-91
2021/06/13 11:28:41;;;;;;;;;4.33;3.00;;;;;30.27;27.35;102345.31;6122936;23;45319;-90
2021/06/13 11:31:10;;;;;;;;;3.67;3.67;;;;;30.38;27.91;102336.25;6123385;23;45590;-90
2021/06/13 11:33:44;;;;;;;;;2.00;2.00;;;;;30.49;28.25;102332.50;6123940;23;45435;-91